Stations météo

Publicité
Schmücke, Allemagne (10552): Température de l'air & dewpoint: 14.07.2018 14:00:00 - 20.07.2018 14:00:00 (CEST)Schmücke, Allemagne (10552): Température de l'air 5cm & Température de l'air -5cm: 14.07.2018 14:00:00 - 20.07.2018 14:00:00 (CEST)Schmücke, Allemagne (10552): Température de l'air -20cm & Température de l'air -100cm: 14.07.2018 14:00:00 - 20.07.2018 14:00:00 (CEST)Schmücke, Allemagne (10552): Vitesse du vent & gusts: 14.07.2018 14:00:00 - 20.07.2018 14:00:00 (CEST)Schmücke, Allemagne (10552): Direction du vent: 14.07.2018 14:00:00 - 20.07.2018 14:00:00 (CEST)Schmücke, Allemagne (10552): visibility: 14.07.2018 14:00:00 - 20.07.2018 14:00:00 (CEST)Schmücke, Allemagne (10552): Ensoleillement: 14.07.2018 14:00:00 - 20.07.2018 14:00:00 (CEST)Schmücke, Allemagne (10552): Quantités de précipitations: 14.07.2018 14:00:00 - 20.07.2018 14:00:00 (CEST)
Date & Time tt [°C] td [°C] tt 5cm [°C] tt -5cm [°C] tt -20cm [°C] tt -100cm [°C] ff [km/h] ff [knt] fx [km/h] fx [knt] dd vv [km] sd [min] rr [mm]
20.07.2018 14:00:00 22,4 6,5 24,9 28,0 20,5 16,0 9 5 26 14 S 47 42 0,0
20.07.2018 13:00:00 20,8 7,4 21,7 25,2 20,0 16,0 9 5 21 11 SW 35 22 0,0
20.07.2018 12:00:00 19,9 7,6 20,6 24,1 19,5 16,0 8 4 22 12 SW 42 38 0,0
20.07.2018 11:00:00 19,8 7,5 23,5 21,7 19,1 16,0 5 3 17 9 S 45 36 0,0
20.07.2018 10:00:00 19,3 8,9 21,8 20,1 18,8 16,0 7 4 16 9 SSW 41 60 0,0
20.07.2018 09:00:00 18,2 8,8 20,3 17,9 18,8 16,0 10 5 17 9 SSW 38 60 0,0
20.07.2018 08:00:00 17,3 7,4 18,2 16,2 19,0 16,0 7 4 16 9 SSE 47 60 0,0
20.07.2018 07:00:00 15,1 5,4 13,0 15,2 19,4 16,0 8 5 17 9 ESE 62 50 0,0
20.07.2018 06:00:00 13,8 5,8 11,0 15,3 19,8 16,0 10 5 17 9 E 45 0 0,0
20.07.2018 05:00:00 13,6 6,0 11,4 15,8 20,3 16,0 13 7 21 11 E 49 0 0,0
20.07.2018 04:00:00 13,1 6,2 11,3 16,3 20,8 15,9 14 8 22 12 NE 36 0 0,0
20.07.2018 03:00:00 13,1 6,4 10,8 17,0 21,3 15,9 15 8 25 13 NE 38 0 0,0
20.07.2018 02:00:00 14,2 5,9 12,4 17,8 21,8 15,9 17 9 27 14 NE 41 0 0,0
20.07.2018 01:00:00 14,3 5,2 12,4 18,6 22,3 15,9 14 8 22 12 NE 40 0 0,0
20.07.2018 00:00:00 14,3 5,5 12,1 19,7 22,9 15,9 13 7 21 11 NE 50 0 0,0
19.07.2018 23:00:00 15,3 5,5 13,5 21,0 23,4 15,9 13 7 22 12 ENE 45 0 0,0
19.07.2018 22:00:00 16,4 5,4 14,2 22,7 23,8 15,9 10 6 18 10 NE 48 0 0,0
19.07.2018 21:00:00 17,7 5,3 15,2 24,9 24,1 15,9 9 5 16 8 NNE 48 58 0,0
19.07.2018 20:00:00 19,9 5,5 19,1 27,6 24,0 15,9 6 3 16 9 N 55 60 0,0
19.07.2018 19:00:00 20,8 5,0 22,1 29,6 23,7 15,9 9 5 24 13 N 49 60 0,0
19.07.2018 18:00:00 21,1 5,4 23,4 30,9 23,2 15,9 10 6 22 12 N 45 60 0,0
19.07.2018 17:00:00 20,9 4,8 24,3 31,5 22,5 15,9 8 5 24 13 ENE 40 60 0,0
19.07.2018 16:00:00 20,4 4,1 25,1 31,3 21,7 15,9 12 6 23 12 NE 37 60 0,0
19.07.2018 15:00:00 20,0 5,5 24,9 30,4 20,8 15,9 10 5 25 13 N 40 60 0,0
19.07.2018 14:00:00 19,5 5,8 25,3 28,8 19,8 15,9 10 6 25 14 N 30 60 0,0
19.07.2018 13:00:00 18,5 5,1 22,9 26,6 19,0 15,9 12 7 20 11 NNE 37 60 0,0
19.07.2018 12:00:00 18,1 5,0 21,0 24,0 18,3 15,9 9 5 21 11 NW 35 60 0,0
19.07.2018 11:00:00 17,0 5,8 20,9 20,9 17,9 15,9 9 5 18 10 NNW 45 60 0,0
19.07.2018 10:00:00 15,6 3,0 18,6 18,0 17,7 15,9 9 5 20 11 NNE 57 60 0,0
19.07.2018 09:00:00 15,0 4,0 17,0 15,9 17,7 15,8 9 5 24 13 NNE 45 60 0,0
19.07.2018 08:00:00 13,6 7,1 14,8 14,6 18,0 15,8 8 5 19 10 NNE 34 60 0,0
19.07.2018 07:00:00 12,0 6,8 10,3 13,6 18,4 15,8 9 5 18 10 NNE 42 50 0,0
19.07.2018 06:00:00 10,7 7,0 8,4 13,9 18,8 15,8 10 5 18 10 NNE 37 0 0,0
19.07.2018 05:00:00 11,0 6,8 8,6 14,5 19,3 15,8 10 5 17 9 NNE 42 0 0,0
19.07.2018 04:00:00 11,2 7,1 8,7 15,1 19,8 15,8 9 5 18 10 NNE 34 0 0,0
19.07.2018 03:00:00 12,0 7,3 9,8 15,8 20,3 15,8 8 5 20 11 NE 36 0 0,0
19.07.2018 02:00:00 12,7 7,5 11,0 16,6 20,8 15,8 12 6 23 13 NE 35 0 0,0
19.07.2018 01:00:00 13,1 7,7 11,2 17,5 21,3 15,8 12 6 27 15 NNE 34 0 0,0
19.07.2018 00:00:00 13,9 7,6 12,2 18,5 21,8 15,8 16 9 28 15 N 35 0 0,0
18.07.2018 23:00:00 14,7 7,3 13,3 19,7 22,3 15,8 14 7 26 14 N 43 0 0,0
18.07.2018 22:00:00 15,5 7,1 14,0 21,3 22,8 15,8 13 7 24 13 N 37 4 0,0
18.07.2018 21:00:00 17,2 7,1 15,5 23,4 23,0 15,8 10 5 22 12 N 45 60 0,0
18.07.2018 20:00:00 19,4 5,8 19,1 26,2 22,9 15,8 6 3 24 13 NNW 58 60 0,0
18.07.2018 19:00:00 20,2 6,2 21,5 28,1 22,6 15,8 10 5 27 15 N 46 60 0,0
18.07.2018 18:00:00 20,4 7,1 22,0 29,4 22,1 15,8 10 6 26 14 NNE 36 60 0,0
18.07.2018 17:00:00 21,4 6,1 24,5 29,8 21,5 15,8 8 5 27 15 WNW 51 60 0,0
18.07.2018 16:00:00 21,0 5,8 24,0 29,1 20,8 15,8 12 7 29 16 W 34 60 0,0
18.07.2018 15:00:00 20,0 7,3 24,0 27,5 20,1 15,8 16 9 35 19 W 36 44 0,0
18.07.2018 14:00:00 19,8 9,9 24,1 26,8 19,4 15,8 17 9 31 17 WSW 35 46 0,0
18.07.2018 13:00:00 19,8 10,8 24,9 25,0 18,8 15,8 16 9 36 20 SW 27 55 0,0
18.07.2018 12:00:00 18,2 9,3 19,8 22,1 18,3 15,8 13 7 32 18 W 36 32 0,0
18.07.2018 11:00:00 17,4 11,6 18,0 20,7 18,0 15,8 12 6 26 14 W 25 19 0,0
18.07.2018 10:00:00 17,9 11,3 21,2 19,5 17,7 15,8 7 4 21 11 NW 30 56 0,0
18.07.2018 09:00:00 17,3 11,9 19,2 17,2 17,7 15,8 7 4 23 12 NW 18 60 0,0
18.07.2018 08:00:00 15,6 12,3 16,1 15,8 17,8 15,8 13 7 27 15 N 12 60 0,0
18.07.2018 07:00:00 14,2 11,1 13,3 15,0 18,1 15,8 15 8 27 15 N 15 40 0,0
18.07.2018 06:00:00 14,2 10,3 12,6 15,4 18,4 15,8 14 7 25 14 NNW 19 0 0,0
18.07.2018 05:00:00 15,1 10,2 14,2 15,8 18,6 15,8 12 6 28 15 NNW 24 0 0,0
18.07.2018 04:00:00 15,4 10,0 13,8 16,0 18,9 15,8 13 7 28 15 N 25 0 0,0
18.07.2018 03:00:00 16,6 9,9 15,2 16,7 19,2 15,8 13 7 31 17 NNW 28 0 0,0
18.07.2018 02:00:00 17,2 9,3 15,8 17,1 19,5 15,8 10 5 24 13 NW 37 0 0,0
18.07.2018 01:00:00 17,9 8,8 16,4 17,5 19,9 15,8 9 5 25 13 WNW 34 0 0,0
18.07.2018 00:00:00 18,2 8,5 16,9 17,7 20,3 15,8 11 6 22 12 NNW 29 0 0,0
17.07.2018 23:00:00 17,5 7,6 14,7 18,4 20,7 15,8 8 4 20 11 WNW 37 0 0,0
17.07.2018 22:00:00 18,3 7,7 16,5 19,5 21,0 15,8 9 5 21 11 NW 38 0 0,0
17.07.2018 21:00:00 19,7 6,6 17,0 20,9 21,3 15,8 8 4 18 10 W 52 56 0,0
17.07.2018 20:00:00 21,0 6,2 19,0 22,6 21,4 15,8 6 4 24 13 NW 59 36 0,0
17.07.2018 19:00:00 21,6 5,2 20,3 23,6 21,4 15,8 11 6 30 16 NNW 50 18 0,0
17.07.2018 18:00:00 22,0 4,2 20,7 25,5 21,1 15,8 11 6 41 22 NNW 58 34 0,0
17.07.2018 17:00:00 23,9 4,4 25,3 27,3 20,6 15,8 14 8 36 19 NNW 37 54 0,0
17.07.2018 16:00:00 22,9 6,3 25,3 27,1 20,0 15,8 12 7 31 17 NW 44 46 0,0
17.07.2018 15:00:00 23,0 7,6 25,3 27,1 19,3 15,8 16 8 34 19 W 43 58 0,0
17.07.2018 14:00:00 22,6 8,0 25,3 26,4 18,5 15,8 18 10 34 19 W 32 60 0,0
17.07.2018 13:00:00 21,7 9,8 23,9 24,9 17,7 15,8 14 8 29 15 W 34 60 0,0
17.07.2018 12:00:00 21,1 9,5 23,2 22,9 17,0 15,8 18 10 32 18 W 30 59 0,0
17.07.2018 11:00:00 20,3 10,0 22,4 20,5 16,4 15,8 16 8 27 15 SW 28 60 0,0
17.07.2018 10:00:00 19,2 10,2 20,8 17,7 16,0 15,8 13 7 24 13 W 36 58 0,0
17.07.2018 09:00:00 18,1 10,5 19,3 15,4 16,0 15,8 9 5 15 8 SW 32 47 0,0
17.07.2018 08:00:00 16,6 9,8 17,0 13,7 16,1 15,8 10 5 17 9 W 35 30 0,0
17.07.2018 07:00:00 15,2 7,2 11,4 12,6 16,3 15,8 11 6 16 9 W 46 52 0,0
17.07.2018 06:00:00 14,8 7,2 11,4 12,6 16,6 15,8 13 7 18 10 W 36 0 0,0
17.07.2018 05:00:00 15,0 6,9 11,3 12,9 16,9 15,8 12 6 15 8 W 32 0 0,0
17.07.2018 04:00:00 15,0 7,2 11,0 13,2 17,2 15,8 11 6 13 7 W 31 0 0,0
17.07.2018 03:00:00 14,4 7,7 10,4 13,6 17,5 15,8 9 5 10 5 NW 32 0 0,0
17.07.2018 02:00:00 14,2 7,9 10,0 14,1 17,8 15,8 6 4 8 5 NW 35 0 0,0
17.07.2018 01:00:00 13,5 8,5 10,2 14,6 18,2 15,8 3 1 8 5 W 36 0 0,0
17.07.2018 00:00:00 13,1 9,6 10,5 15,3 18,5 15,8 6 4 8 4 SW 30 0 0,0
16.07.2018 23:00:00 12,5 10,4 10,7 16,2 18,8 15,8 0 0 4 2 N 28 0 0,0
16.07.2018 22:00:00 13,4 11,8 11,7 17,4 18,9 15,8 4 2 8 5 SW 13 3 0,0
16.07.2018 21:00:00 15,2 12,2 13,8 18,9 18,9 15,8 5 3 8 4 SW 20 37 0,0
16.07.2018 20:00:00 16,4 13,7 15,5 20,1 18,7 15,8 5 3 8 4 SSE 14 20 0,0
16.07.2018 19:00:00 18,3 12,1 18,5 20,9 18,4 15,8 6 3 10 6 E 27 59 0,0
16.07.2018 18:00:00 16,6 14,4 17,2 19,0 18,3 15,7 7 4 9 5 E 18 6 0,0
16.07.2018 17:00:00 15,4 14,1 15,8 18,1 18,2 15,7 2 1 14 8 E 10 0 0,0
16.07.2018 16:00:00 14,2 13,5 14,6 17,1 18,3 15,7 6 3 13 7 E 9 0 0,0
16.07.2018 15:00:00 13,5 12,6 13,1 16,8 18,4 15,7 7 4 18 10 ESE 7 0 0,0
16.07.2018 14:00:00 14,2 13,9 14,3 15,3 18,9 15,7 8 5 11 6 N 2,9 0 1,0
16.07.2018 13:00:00 10,7 10,0 9,7 12,8 19,5 15,7 4 2 26 14 NW 6 0 31,9
16.07.2018 12:00:00 13,7 10,3 5,4 21,2 19,2 15,7 14 7 33 18 N 2,2 0 2,1
16.07.2018 11:00:00 18,3 11,5 21,1 22,2 18,9 15,7 7 4 19 11 SW 30 51 0,0
16.07.2018 10:00:00 17,9 11,2 20,2 20,1 18,6 15,7 9 5 15 8 SSW 31 60 0,0
16.07.2018 09:00:00 17,2 10,9 18,9 18,4 18,6 15,7 7 4 12 7 SSW 25 60 0,0
16.07.2018 08:00:00 16,9 11,3 18,4 17,4 18,7 15,7 6 4 13 7 SW 28 60 0,0
16.07.2018 07:00:00 15,5 10,4 15,1 16,1 19,0 15,7 6 3 18 10 SSW 27 41 0,0
16.07.2018 06:00:00 14,5 9,2 13,0 15,8 19,3 15,7 9 5 19 11 ESE 29 0 0,0
16.07.2018 05:00:00 13,7 8,6 11,8 16,0 19,7 15,7 10 5 19 11 ESE 30 0 0,0
16.07.2018 04:00:00 13,9 8,2 12,2 16,6 20,1 15,7 11 6 20 11 E 38 0 0,0
16.07.2018 03:00:00 13,9 7,7 12,6 17,1 20,6 15,7 13 7 19 10 ENE 49 0 0,0
16.07.2018 02:00:00 14,4 8,1 13,1 17,8 21,0 15,7 13 7 21 11 ENE 39 0 0,0
16.07.2018 01:00:00 14,8 8,9 13,2 18,6 21,5 15,7 13 7 24 13 ENE 38 0 0,0
16.07.2018 00:00:00 15,4 8,7 14,3 19,6 21,9 15,7 16 8 22 12 ENE 40 0 0,0
15.07.2018 23:00:00 15,0 8,7 13,7 20,7 22,3 15,7 6 3 9 5 E 49 0 0,0
15.07.2018 22:00:00 15,7 9,5 14,2 22,2 22,6 15,7 5 3 16 9 ESE 38 3 0,0
15.07.2018 21:00:00 17,6 10,1 17,0 24,1 22,7 15,7 10 5 26 14 E 33 44 0,0
15.07.2018 20:00:00 19,5 8,8 20,0 25,9 22,7 15,7 9 5 23 12 NE 39 46 0,0
15.07.2018 19:00:00 20,2 8,5 22,4 26,8 22,5 15,7 11 6 22 12 NE 37 31 0,0
15.07.2018 18:00:00 20,2 8,7 20,6 28,4 22,1 15,7 10 6 24 13 NE 36 40 0,0
15.07.2018 17:00:00 21,3 8,9 24,9 29,4 21,6 15,6 11 6 28 15 N 22 54 0,0
15.07.2018 16:00:00 21,0 9,8 24,3 28,4 21,0 15,6 11 6 21 12 NNE 33 35 0,0
15.07.2018 15:00:00 20,1 10,1 21,8 29,3 20,2 15,6 10 6 24 13 NE 29 44 0,0
15.07.2018 14:00:00 20,5 11,0 24,2 28,4 19,3 15,6 10 5 25 14 NNE 30 57 0,0
15.07.2018 13:00:00 19,8 12,2 24,5 26,0 18,5 15,6 10 5 24 13 ENE 25 54 0,0
15.07.2018 12:00:00 18,4 11,2 22,6 23,9 17,8 15,6 10 5 25 14 NE 19 50 0,0
15.07.2018 11:00:00 18,4 12,1 21,1 21,3 17,3 15,6 8 4 19 11 ENE 22 56 0,0
15.07.2018 10:00:00 17,6 10,9 20,6 18,8 17,0 15,6 8 4 13 7 E 21 60 0,0
15.07.2018 09:00:00 16,9 10,5 19,8 16,4 17,0 15,6 7 4 12 7 E 19 60 0,0
15.07.2018 08:00:00 15,5 10,1 16,8 14,9 17,1 15,6 7 4 11 6 E 20 60 0,0
15.07.2018 07:00:00 12,7 9,5 11,4 13,8 17,4 15,6 10 5 16 9 ENE 14 52 0,0
15.07.2018 06:00:00 11,9 9,5 10,3 13,9 17,8 15,6 12 7 21 11 ENE 10 0 0,0
15.07.2018 05:00:00 12,2 9,5 10,9 14,3 18,1 15,6 19 11 23 12 NE 11 0 0,0
15.07.2018 04:00:00 12,5 9,5 11,0 14,8 18,5 15,6 15 8 26 14 NE 15 0 0,0
15.07.2018 03:00:00 12,9 9,6 11,4 15,4 18,9 15,6 16 8 22 12 NE 18 0 0,0
15.07.2018 02:00:00 13,6 9,9 12,1 16,0 19,3 15,6 15 8 21 12 NE 19 0 0,0
15.07.2018 01:00:00 14,1 9,7 12,8 16,6 19,7 15,6 14 8 22 12 NE 22 0 0,0
15.07.2018 00:00:00 14,6 9,1 13,2 17,3 20,1 15,6 14 8 21 11 NNE 30 0 0,0
14.07.2018 23:00:00 15,8 8,4 14,0 18,3 20,4 15,7 10 6 16 9 NNE 37 0 0,0
14.07.2018 22:00:00 16,5 8,0 13,6 19,5 20,7 15,7 9 5 15 8 NNE 42 0 0,0
14.07.2018 21:00:00 17,9 8,0 15,9 21,2 20,9 15,7 8 5 14 7 N 50 46 0,0
14.07.2018 20:00:00 19,7 8,2 19,7 23,2 20,8 15,7 6 4 19 10 N 45 55 0,0
14.07.2018 19:00:00 19,9 8,4 19,8 24,1 20,7 15,7 4 2 14 8 NNE 47 25 0,0
14.07.2018 18:00:00 20,1 8,1 22,4 24,4 20,4 15,7 7 4 15 8 N 47 29 0,0
14.07.2018 17:00:00 20,2 7,6 21,6 24,8 20,1 15,7 8 5 20 11 NNE 49 24 0,0
14.07.2018 16:00:00 20,1 7,8 22,1 25,1 19,7 15,7 6 4 21 11 NE 40 23 0,0
14.07.2018 15:00:00 19,4 9,1 21,5 25,1 19,2 15,7 8 4 19 10 N 48 19 0,0
14.07.2018 14:00:00 19,8 8,5 24,2 25,1 18,5 15,7 8 4 26 14 ENE 47 29 0,0

tt = Température de l'air
td = dewpoint
tt 5cm = Température de l'air 5cm
tt -5cm = Température de l'air -5cm
tt -20cm = Température de l'air -20cm
tt -100cm = Température de l'air -100cm
ff = Vitesse du vent
fx = gusts
dd = Direction du vent
vv = visibility
sd = Ensoleillement
rr = Quantités de précipitations

stations d'obs. à proximité